Atwood, CO

4:17 PM MDT on May 22, 2015 (GMT -0600)
Sterling Municipal | | Change Station
CLOSE
Current Station
Airport
Location: Sterling Muni, Sterling, CO,
Elevation: 4039 ft
Nearby Weather Stations

Elev 4039 ft 40.62 °N, 103.26 °W | Updated 27 minutes ago

Overcast
Overcast
52 °F
Feels Like 52 °F
N
9
Wind Variable Wind from ESE

Today
High -- | Low -- °F
--% Chance of Precip.
Yesterday
High -- | Low -- °F
Precip. -- in
5:30 AM 8:09 PM
Waxing Crescent, 24% visible
Pressure 30.00 in
Visibility 10.0 miles
Clouds Scattered Clouds 1100 ft
Mostly Cloudy 1900 ft
Overcast 3500 ft
Dew Point 48 °F
Humidity 88%
Rainfall 0.60 in
Snow Depth Not available.
UV 2 out of 12
Pollen .90 out of 12
Air Quality Not available.
Flu Activity Sporadic
METAR KSTK 222150Z AUTO 11008KT 10SM SCT011 BKN019 OVC035 11/09 A3000 RMK AO2 LTG DSNT W

More Conditions Fewer Conditions

Pressure 30.00 in
Visibility 10.0 miles
Clouds Scattered Clouds 1100 ft
Mostly Cloudy 1900 ft
Overcast 3500 ft
Dew Point 48 °F
Humidity 88%
Rainfall 0.60 in
Snow Depth Not available.
UV 2 out of 12
Pollen .90 out of 12
Air Quality Not available.
Flu Activity Sporadic
METAR KSTK 222150Z AUTO 11008KT 10SM SCT011 BKN019 OVC035 11/09 A3000 RMK AO2 LTG DSNT W

More Conditions Fewer Conditions

Nowcast | as of 4:14 PM MDT on May 22, 2015

Areas of light rain over areas north of New Raymer...Sterling...and Holyoke will diminish from south to north during the late afternoon. Isolated thunderstorms developing around Limon may spread into southern Washington County around 6 PM...with gusty winds...brief heavy rain...and small hail possible.

×

10-Day Weather Forecast

Almanac

Astronomy

May. 22, 2015 Rise Set
Actual Time
Civil Twilight
Nautical Twilight
Astronomical Twilight
Moon
Length of Visible Light
Length of Day
Tomorrow will be .
, % of the Moon is Illuminated

Today's Extremes

State Highs State Lows

Community

WunderPhotos

Upload Photos

1,823,319 photos uploaded!

WunderBlogs® & News

Nearby

Air Quality

  Air Quality AQ Index Pollutant
Not available.

Snow Depth

Station Depth Elevation

Earthquake Activity

City Distance Mag. Time & Date
Minimum magnitude displayed is 2.5.

Coastal Water Temperatures

Place Temperature

Stations

Nearby Weather Stations

Station Location Temp. Windchill Dew Point Humidity Wind Precip. Elev Updated Type